sensor_id;sensor_type;location;lat;lon;timestamp;P1;durP1;ratioP1;P2;durP2;ratioP2
48596;SDS011;34382;43.160;24.148;2024-01-30T00:10:40;23.77;;;12.48;;
48596;SDS011;34382;43.160;24.148;2024-01-30T00:12:12;20.75;;;11.63;;
48596;SDS011;34382;43.160;24.148;2024-01-30T00:13:45;21.58;;;12.15;;
48596;SDS011;34382;43.160;24.148;2024-01-30T00:15:17;20.42;;;10.50;;
48596;SDS011;34382;43.160;24.148;2024-01-30T00:16:52;21.45;;;12.27;;
48596;SDS011;34382;43.160;24.148;2024-01-30T00:18:25;21.77;;;12.70;;
48596;SDS011;34382;43.160;24.148;2024-01-30T00:19:57;18.88;;;11.50;;
48596;SDS011;34382;43.160;24.148;2024-01-30T00:21:29;18.92;;;11.35;;
48596;SDS011;34382;43.160;24.148;2024-01-30T00:23:02;20.88;;;11.38;;
48596;SDS011;34382;43.160;24.148;2024-01-30T00:26:08;19.67;;;11.45;;
48596;SDS011;34382;43.160;24.148;2024-01-30T00:27:40;20.20;;;11.40;;
48596;SDS011;34382;43.160;24.148;2024-01-30T00:29:12;17.83;;;9.25;;
48596;SDS011;34382;43.160;24.148;2024-01-30T00:30:51;17.08;;;8.52;;
48596;SDS011;34382;43.160;24.148;2024-01-30T00:32:23;14.57;;;7.95;;
48596;SDS011;34382;43.160;24.148;2024-01-30T00:33:55;16.95;;;9.13;;
48596;SDS011;34382;43.160;24.148;2024-01-30T00:35:28;16.73;;;8.38;;
48596;SDS011;34382;43.160;24.148;2024-01-30T00:37:01;15.45;;;7.72;;
48596;SDS011;34382;43.160;24.148;2024-01-30T00:38:33;16.27;;;8.13;;
48596;SDS011;34382;43.160;24.148;2024-01-30T00:40:05;13.68;;;8.43;;
48596;SDS011;34382;43.160;24.148;2024-01-30T00:41:38;18.40;;;8.45;;
48596;SDS011;34382;43.160;24.148;2024-01-30T00:43:10;15.23;;;7.95;;
48596;SDS011;34382;43.160;24.148;2024-01-30T00:44:44;14.90;;;8.53;;
48596;SDS011;34382;43.160;24.148;2024-01-30T00:47:49;14.77;;;7.53;;
48596;SDS011;34382;43.160;24.148;2024-01-30T00:49:21;15.45;;;8.20;;
48596;SDS011;34382;43.160;24.148;2024-01-30T00:50:54;13.52;;;7.40;;
48596;SDS011;34382;43.160;24.148;2024-01-30T00:52:26;16.33;;;7.82;;
48596;SDS011;34382;43.160;24.148;2024-01-30T00:53:58;14.90;;;8.02;;
48596;SDS011;34382;43.160;24.148;2024-01-30T00:55:30;14.10;;;6.93;;
48596;SDS011;34382;43.160;24.148;2024-01-30T00:57:03;16.20;;;7.82;;
48596;SDS011;34382;43.160;24.148;2024-01-30T00:58:35;14.55;;;7.15;;
48596;SDS011;34382;43.160;24.148;2024-01-30T01:01:47;13.63;;;7.57;;
48596;SDS011;34382;43.160;24.148;2024-01-30T01:03:19;16.15;;;7.75;;
48596;SDS011;34382;43.160;24.148;2024-01-30T01:04:51;13.88;;;7.32;;
48596;SDS011;34382;43.160;24.148;2024-01-30T01:06:23;14.20;;;6.90;;
48596;SDS011;34382;43.160;24.148;2024-01-30T01:07:56;15.75;;;8.82;;
48596;SDS011;34382;43.160;24.148;2024-01-30T01:09:28;15.50;;;8.55;;
48596;SDS011;34382;43.160;24.148;2024-01-30T01:11:00;14.65;;;8.35;;
48596;SDS011;34382;43.160;24.148;2024-01-30T01:12:33;14.68;;;8.13;;
48596;SDS011;34382;43.160;24.148;2024-01-30T01:14:05;15.48;;;8.60;;
48596;SDS011;34382;43.160;24.148;2024-01-30T01:15:37;15.95;;;8.77;;
48596;SDS011;34382;43.160;24.148;2024-01-30T01:17:09;16.90;;;8.95;;
48596;SDS011;34382;43.160;24.148;2024-01-30T01:18:41;16.92;;;8.43;;
48596;SDS011;34382;43.160;24.148;2024-01-30T01:20:14;18.83;;;9.15;;
48596;SDS011;34382;43.160;24.148;2024-01-30T01:21:46;19.95;;;9.23;;
48596;SDS011;34382;43.160;24.148;2024-01-30T01:23:19;16.38;;;9.70;;
48596;SDS011;34382;43.160;24.148;2024-01-30T01:24:51;18.90;;;9.32;;
48596;SDS011;34382;43.160;24.148;2024-01-30T01:26:23;16.65;;;9.40;;
48596;SDS011;34382;43.160;24.148;2024-01-30T01:27:56;17.33;;;9.65;;
48596;SDS011;34382;43.160;24.148;2024-01-30T01:29:29;18.77;;;8.73;;
48596;SDS011;34382;43.160;24.148;2024-01-30T01:31:01;16.40;;;9.65;;
48596;SDS011;34382;43.160;24.148;2024-01-30T01:35:59;16.23;;;10.05;;
48596;SDS011;34382;43.160;24.148;2024-01-30T01:37:34;17.30;;;9.60;;
48596;SDS011;34382;43.160;24.148;2024-01-30T01:39:06;18.77;;;10.48;;
48596;SDS011;34382;43.160;24.148;2024-01-30T01:40:38;19.15;;;10.60;;
48596;SDS011;34382;43.160;24.148;2024-01-30T01:42:11;19.85;;;10.35;;
48596;SDS011;34382;43.160;24.148;2024-01-30T01:43:43;25.38;;;14.63;;
48596;SDS011;34382;43.160;24.148;2024-01-30T01:45:16;24.25;;;13.73;;
48596;SDS011;34382;43.160;24.148;2024-01-30T01:46:48;20.75;;;12.15;;
48596;SDS011;34382;43.160;24.148;2024-01-30T01:48:20;20.67;;;12.15;;
48596;SDS011;34382;43.160;24.148;2024-01-30T01:49:52;20.17;;;11.02;;
48596;SDS011;34382;43.160;24.148;2024-01-30T01:51:26;17.53;;;9.37;;
48596;SDS011;34382;43.160;24.148;2024-01-30T01:52:59;17.23;;;9.82;;
48596;SDS011;34382;43.160;24.148;2024-01-30T01:54:32;18.50;;;10.10;;
48596;SDS011;34382;43.160;24.148;2024-01-30T01:56:04;18.00;;;9.33;;
48596;SDS011;34382;43.160;24.148;2024-01-30T01:57:37;16.45;;;7.80;;
48596;SDS011;34382;43.160;24.148;2024-01-30T01:59:10;16.75;;;7.70;;
48596;SDS011;34382;43.160;24.148;2024-01-30T02:00:42;13.80;;;7.82;;
48596;SDS011;34382;43.160;24.148;2024-01-30T02:02:14;14.43;;;7.65;;
48596;SDS011;34382;43.160;24.148;2024-01-30T02:03:49;14.10;;;8.35;;
48596;SDS011;34382;43.160;24.148;2024-01-30T02:05:22;16.83;;;8.23;;
48596;SDS011;34382;43.160;24.148;2024-01-30T02:06:54;16.63;;;8.70;;
48596;SDS011;34382;43.160;24.148;2024-01-30T02:08:26;14.32;;;8.25;;
48596;SDS011;34382;43.160;24.148;2024-01-30T02:09:59;15.40;;;9.02;;
48596;SDS011;34382;43.160;24.148;2024-01-30T02:11:31;18.60;;;9.43;;
48596;SDS011;34382;43.160;24.148;2024-01-30T02:13:03;18.15;;;9.25;;
48596;SDS011;34382;43.160;24.148;2024-01-30T02:14:45;16.80;;;8.75;;
48596;SDS011;34382;43.160;24.148;2024-01-30T02:16:18;19.08;;;11.13;;
48596;SDS011;34382;43.160;24.148;2024-01-30T02:17:50;14.88;;;8.60;;
48596;SDS011;34382;43.160;24.148;2024-01-30T02:19:22;14.70;;;8.50;;
48596;SDS011;34382;43.160;24.148;2024-01-30T02:20:56;18.05;;;8.98;;
48596;SDS011;34382;43.160;24.148;2024-01-30T02:24:00;18.75;;;9.75;;
48596;SDS011;34382;43.160;24.148;2024-01-30T02:25:35;17.13;;;9.40;;
48596;SDS011;34382;43.160;24.148;2024-01-30T02:27:10;18.75;;;9.40;;
48596;SDS011;34382;43.160;24.148;2024-01-30T02:28:42;17.73;;;9.75;;
48596;SDS011;34382;43.160;24.148;2024-01-30T02:30:14;18.88;;;9.43;;
48596;SDS011;34382;43.160;24.148;2024-01-30T02:31:47;15.85;;;8.65;;
48596;SDS011;34382;43.160;24.148;2024-01-30T02:33:19;21.83;;;10.43;;
48596;SDS011;34382;43.160;24.148;2024-01-30T02:34:53;17.15;;;10.13;;
48596;SDS011;34382;43.160;24.148;2024-01-30T02:36:25;23.20;;;11.88;;
48596;SDS011;34382;43.160;24.148;2024-01-30T02:37:58;24.55;;;11.80;;
48596;SDS011;34382;43.160;24.148;2024-01-30T02:39:30;26.23;;;12.52;;
48596;SDS011;34382;43.160;24.148;2024-01-30T02:41:02;26.45;;;12.70;;
48596;SDS011;34382;43.160;24.148;2024-01-30T02:42:35;24.38;;;12.13;;
48596;SDS011;34382;43.160;24.148;2024-01-30T02:44:07;18.92;;;10.32;;
48596;SDS011;34382;43.160;24.148;2024-01-30T02:45:39;21.25;;;9.77;;
48596;SDS011;34382;43.160;24.148;2024-01-30T02:47:12;22.88;;;11.20;;
48596;SDS011;34382;43.160;24.148;2024-01-30T02:48:44;22.45;;;10.73;;
48596;SDS011;34382;43.160;24.148;2024-01-30T02:50:17;20.17;;;9.93;;
48596;SDS011;34382;43.160;24.148;2024-01-30T02:51:50;22.77;;;10.80;;
48596;SDS011;34382;43.160;24.148;2024-01-30T02:53:23;19.90;;;10.02;;
48596;SDS011;34382;43.160;24.148;2024-01-30T02:54:56;22.77;;;10.52;;
48596;SDS011;34382;43.160;24.148;2024-01-30T02:56:29;15.40;;;8.05;;
48596;SDS011;34382;43.160;24.148;2024-01-30T03:15:37;22.27;;;10.05;;
48596;SDS011;34382;43.160;24.148;2024-01-30T03:17:09;21.75;;;10.20;;
48596;SDS011;34382;43.160;24.148;2024-01-30T03:18:41;16.88;;;8.90;;
48596;SDS011;34382;43.160;24.148;2024-01-30T03:20:14;15.38;;;7.95;;
48596;SDS011;34382;43.160;24.148;2024-01-30T03:21:46;20.30;;;9.35;;
48596;SDS011;34382;43.160;24.148;2024-01-30T03:23:18;17.73;;;8.23;;
48596;SDS011;34382;43.160;24.148;2024-01-30T03:24:50;16.58;;;8.32;;
48596;SDS011;34382;43.160;24.148;2024-01-30T03:26:23;16.73;;;8.20;;
48596;SDS011;34382;43.160;24.148;2024-01-30T03:27:55;19.35;;;9.20;;
48596;SDS011;34382;43.160;24.148;2024-01-30T03:29:27;14.80;;;8.18;;
48596;SDS011;34382;43.160;24.148;2024-01-30T03:30:59;13.68;;;8.40;;
48596;SDS011;34382;43.160;24.148;2024-01-30T03:32:32;13.98;;;7.15;;
48596;SDS011;34382;43.160;24.148;2024-01-30T03:34:04;16.83;;;8.15;;
48596;SDS011;34382;43.160;24.148;2024-01-30T03:35:36;17.13;;;8.52;;
48596;SDS011;34382;43.160;24.148;2024-01-30T03:37:09;17.85;;;9.35;;
48596;SDS011;34382;43.160;24.148;2024-01-30T03:38:41;25.65;;;10.25;;
48596;SDS011;34382;43.160;24.148;2024-01-30T03:40:13;17.30;;;8.45;;
48596;SDS011;34382;43.160;24.148;2024-01-30T03:41:46;16.75;;;9.20;;
48596;SDS011;34382;43.160;24.148;2024-01-30T03:43:19;17.40;;;8.38;;
48596;SDS011;34382;43.160;24.148;2024-01-30T03:44:51;14.75;;;8.00;;
48596;SDS011;34382;43.160;24.148;2024-01-30T03:47:57;16.85;;;7.95;;
48596;SDS011;34382;43.160;24.148;2024-01-30T03:49:29;15.38;;;7.97;;
48596;SDS011;34382;43.160;24.148;2024-01-30T03:51:02;13.70;;;7.53;;
48596;SDS011;34382;43.160;24.148;2024-01-30T03:52:34;17.10;;;7.95;;
48596;SDS011;34382;43.160;24.148;2024-01-30T03:54:06;18.13;;;9.10;;
48596;SDS011;34382;43.160;24.148;2024-01-30T03:55:39;19.25;;;9.27;;
48596;SDS011;34382;43.160;24.148;2024-01-30T03:57:11;17.50;;;8.38;;
48596;SDS011;34382;43.160;24.148;2024-01-30T03:58:43;14.43;;;7.55;;
48596;SDS011;34382;43.160;24.148;2024-01-30T04:00:16;16.85;;;7.47;;
48596;SDS011;34382;43.160;24.148;2024-01-30T04:01:52;15.15;;;8.30;;
48596;SDS011;34382;43.160;24.148;2024-01-30T04:03:24;16.40;;;8.05;;
48596;SDS011;34382;43.160;24.148;2024-01-30T04:04:57;15.43;;;8.07;;
48596;SDS011;34382;43.160;24.148;2024-01-30T04:06:30;14.05;;;7.47;;
48596;SDS011;34382;43.160;24.148;2024-01-30T04:08:03;14.88;;;7.55;;
48596;SDS011;34382;43.160;24.148;2024-01-30T04:09:35;15.13;;;8.15;;
48596;SDS011;34382;43.160;24.148;2024-01-30T04:11:07;15.73;;;8.27;;
48596;SDS011;34382;43.160;24.148;2024-01-30T04:12:40;17.95;;;8.68;;
48596;SDS011;34382;43.160;24.148;2024-01-30T04:14:12;17.65;;;9.02;;
48596;SDS011;34382;43.160;24.148;2024-01-30T04:15:44;20.35;;;10.10;;
48596;SDS011;34382;43.160;24.148;2024-01-30T04:27:24;15.88;;;8.70;;
48596;SDS011;34382;43.160;24.148;2024-01-30T04:44:45;15.15;;;8.70;;
48596;SDS011;34382;43.160;24.148;2024-01-30T04:46:17;15.63;;;8.98;;
48596;SDS011;34382;43.160;24.148;2024-01-30T04:47:49;15.75;;;9.52;;
48596;SDS011;34382;43.160;24.148;2024-01-30T04:49:22;20.05;;;9.40;;
48596;SDS011;34382;43.160;24.148;2024-01-30T04:50:54;19.30;;;9.45;;
48596;SDS011;34382;43.160;24.148;2024-01-30T04:52:27;19.23;;;9.77;;
48596;SDS011;34382;43.160;24.148;2024-01-30T04:54:01;19.13;;;9.60;;
48596;SDS011;34382;43.160;24.148;2024-01-30T04:55:34;19.50;;;9.95;;
48596;SDS011;34382;43.160;24.148;2024-01-30T04:57:07;17.05;;;9.10;;
48596;SDS011;34382;43.160;24.148;2024-01-30T04:58:43;16.48;;;8.02;;
48596;SDS011;34382;43.160;24.148;2024-01-30T05:00:16;20.50;;;9.77;;
48596;SDS011;34382;43.160;24.148;2024-01-30T05:01:48;19.00;;;10.95;;
48596;SDS011;34382;43.160;24.148;2024-01-30T05:03:23;16.17;;;9.35;;
48596;SDS011;34382;43.160;24.148;2024-01-30T05:04:56;20.58;;;10.55;;
48596;SDS011;34382;43.160;24.148;2024-01-30T05:06:29;18.50;;;9.57;;
48596;SDS011;34382;43.160;24.148;2024-01-30T05:08:02;17.88;;;8.45;;
48596;SDS011;34382;43.160;24.148;2024-01-30T05:09:35;16.83;;;9.20;;
48596;SDS011;34382;43.160;24.148;2024-01-30T05:11:07;18.67;;;9.75;;
48596;SDS011;34382;43.160;24.148;2024-01-30T05:12:39;17.60;;;8.50;;
48596;SDS011;34382;43.160;24.148;2024-01-30T05:14:12;19.73;;;9.43;;
48596;SDS011;34382;43.160;24.148;2024-01-30T05:15:46;18.95;;;10.10;;
48596;SDS011;34382;43.160;24.148;2024-01-30T05:18:56;18.73;;;10.05;;
48596;SDS011;34382;43.160;24.148;2024-01-30T05:20:34;17.58;;;9.57;;
48596;SDS011;34382;43.160;24.148;2024-01-30T05:22:06;20.17;;;9.95;;
48596;SDS011;34382;43.160;24.148;2024-01-30T05:23:38;18.27;;;9.57;;
48596;SDS011;34382;43.160;24.148;2024-01-30T05:25:14;16.42;;;9.10;;
48596;SDS011;34382;43.160;24.148;2024-01-30T05:26:47;22.33;;;10.85;;
48596;SDS011;34382;43.160;24.148;2024-01-30T05:28:20;20.83;;;11.05;;
48596;SDS011;34382;43.160;24.148;2024-01-30T05:29:52;26.05;;;12.07;;
48596;SDS011;34382;43.160;24.148;2024-01-30T05:31:24;21.30;;;11.75;;
48596;SDS011;34382;43.160;24.148;2024-01-30T05:32:59;22.75;;;12.88;;
48596;SDS011;34382;43.160;24.148;2024-01-30T05:34:31;23.17;;;12.57;;
48596;SDS011;34382;43.160;24.148;2024-01-30T05:36:04;22.92;;;12.05;;
48596;SDS011;34382;43.160;24.148;2024-01-30T05:37:36;26.03;;;13.83;;
48596;SDS011;34382;43.160;24.148;2024-01-30T05:39:08;25.58;;;13.27;;
48596;SDS011;34382;43.160;24.148;2024-01-30T05:40:42;38.58;;;21.30;;
48596;SDS011;34382;43.160;24.148;2024-01-30T05:42:14;40.40;;;21.60;;
48596;SDS011;34382;43.160;24.148;2024-01-30T05:43:48;38.15;;;19.48;;
48596;SDS011;34382;43.160;24.148;2024-01-30T05:45:20;27.15;;;14.35;;
48596;SDS011;34382;43.160;24.148;2024-01-30T05:46:55;27.10;;;13.02;;
48596;SDS011;34382;43.160;24.148;2024-01-30T05:48:27;29.67;;;14.77;;
48596;SDS011;34382;43.160;24.148;2024-01-30T05:49:59;33.95;;;17.80;;
48596;SDS011;34382;43.160;24.148;2024-01-30T05:51:32;27.98;;;14.73;;
48596;SDS011;34382;43.160;24.148;2024-01-30T05:53:04;27.95;;;15.70;;
48596;SDS011;34382;43.160;24.148;2024-01-30T05:54:36;25.95;;;14.18;;
48596;SDS011;34382;43.160;24.148;2024-01-30T05:56:09;29.00;;;15.80;;
48596;SDS011;34382;43.160;24.148;2024-01-30T05:57:41;27.15;;;14.10;;
48596;SDS011;34382;43.160;24.148;2024-01-30T05:59:13;21.65;;;13.35;;
48596;SDS011;34382;43.160;24.148;2024-01-30T06:00:46;28.45;;;13.20;;
48596;SDS011;34382;43.160;24.148;2024-01-30T06:02:18;27.17;;;13.38;;
48596;SDS011;34382;43.160;24.148;2024-01-30T06:03:50;26.88;;;14.43;;
48596;SDS011;34382;43.160;24.148;2024-01-30T06:05:23;26.75;;;13.45;;
48596;SDS011;34382;43.160;24.148;2024-01-30T06:06:55;29.05;;;13.88;;
48596;SDS011;34382;43.160;24.148;2024-01-30T06:08:27;25.35;;;13.52;;
48596;SDS011;34382;43.160;24.148;2024-01-30T06:10:03;20.70;;;12.23;;
48596;SDS011;34382;43.160;24.148;2024-01-30T06:11:35;24.88;;;13.23;;
48596;SDS011;34382;43.160;24.148;2024-01-30T06:13:11;21.17;;;12.02;;
48596;SDS011;34382;43.160;24.148;2024-01-30T06:14:43;25.25;;;12.27;;
48596;SDS011;34382;43.160;24.148;2024-01-30T06:16:18;24.33;;;12.27;;
48596;SDS011;34382;43.160;24.148;2024-01-30T06:17:52;22.83;;;12.50;;
48596;SDS011;34382;43.160;24.148;2024-01-30T06:19:25;19.52;;;11.10;;
48596;SDS011;34382;43.160;24.148;2024-01-30T06:20:58;21.00;;;12.20;;
48596;SDS011;34382;43.160;24.148;2024-01-30T06:22:30;21.95;;;11.77;;
48596;SDS011;34382;43.160;24.148;2024-01-30T06:24:03;20.85;;;11.90;;
48596;SDS011;34382;43.160;24.148;2024-01-30T06:25:35;21.98;;;12.18;;
48596;SDS011;34382;43.160;24.148;2024-01-30T06:27:07;23.17;;;12.65;;
48596;SDS011;34382;43.160;24.148;2024-01-30T06:28:40;21.13;;;11.73;;
48596;SDS011;34382;43.160;24.148;2024-01-30T06:30:12;20.95;;;11.70;;
48596;SDS011;34382;43.160;24.148;2024-01-30T06:31:45;25.70;;;13.48;;
48596;SDS011;34382;43.160;24.148;2024-01-30T06:33:17;26.13;;;14.13;;
48596;SDS011;34382;43.160;24.148;2024-01-30T06:34:49;22.65;;;11.95;;
48596;SDS011;34382;43.160;24.148;2024-01-30T06:36:21;19.50;;;11.18;;
48596;SDS011;34382;43.160;24.148;2024-01-30T06:37:54;21.77;;;11.35;;
48596;SDS011;34382;43.160;24.148;2024-01-30T06:39:26;24.35;;;12.68;;
48596;SDS011;34382;43.160;24.148;2024-01-30T06:40:59;29.80;;;13.73;;
48596;SDS011;34382;43.160;24.148;2024-01-30T06:42:31;27.30;;;14.13;;
48596;SDS011;34382;43.160;24.148;2024-01-30T06:44:03;24.80;;;13.55;;
48596;SDS011;34382;43.160;24.148;2024-01-30T06:45:38;23.75;;;13.02;;
48596;SDS011;34382;43.160;24.148;2024-01-30T06:47:10;23.58;;;12.18;;
48596;SDS011;34382;43.160;24.148;2024-01-30T06:48:43;22.58;;;11.00;;
48596;SDS011;34382;43.160;24.148;2024-01-30T06:51:49;18.55;;;10.75;;
48596;SDS011;34382;43.160;24.148;2024-01-30T06:53:21;21.35;;;10.70;;
48596;SDS011;34382;43.160;24.148;2024-01-30T06:54:53;19.70;;;11.65;;
48596;SDS011;34382;43.160;24.148;2024-01-30T06:56:26;20.85;;;11.48;;
48596;SDS011;34382;43.160;24.148;2024-01-30T06:57:58;19.92;;;10.88;;
48596;SDS011;34382;43.160;24.148;2024-01-30T06:59:31;19.05;;;11.02;;
48596;SDS011;34382;43.160;24.148;2024-01-30T07:01:03;22.23;;;10.73;;
48596;SDS011;34382;43.160;24.148;2024-01-30T07:02:36;21.80;;;11.13;;
48596;SDS011;34382;43.160;24.148;2024-01-30T07:04:08;18.55;;;9.85;;
48596;SDS011;34382;43.160;24.148;2024-01-30T07:05:43;21.55;;;11.00;;
48596;SDS011;34382;43.160;24.148;2024-01-30T07:07:15;20.00;;;10.93;;
48596;SDS011;34382;43.160;24.148;2024-01-30T07:08:49;17.67;;;9.80;;
48596;SDS011;34382;43.160;24.148;2024-01-30T07:10:21;21.88;;;10.30;;
48596;SDS011;34382;43.160;24.148;2024-01-30T07:11:54;21.58;;;12.30;;
48596;SDS011;34382;43.160;24.148;2024-01-30T07:13:27;21.48;;;11.63;;
48596;SDS011;34382;43.160;24.148;2024-01-30T07:15:00;19.63;;;11.43;;
48596;SDS011;34382;43.160;24.148;2024-01-30T07:16:34;21.65;;;11.73;;
48596;SDS011;34382;43.160;24.148;2024-01-30T07:18:06;26.30;;;12.13;;
48596;SDS011;34382;43.160;24.148;2024-01-30T07:19:39;21.80;;;11.40;;
48596;SDS011;34382;43.160;24.148;2024-01-30T07:21:12;19.73;;;9.90;;
48596;SDS011;34382;43.160;24.148;2024-01-30T07:22:44;18.88;;;10.20;;
48596;SDS011;34382;43.160;24.148;2024-01-30T07:24:17;17.13;;;9.70;;
48596;SDS011;34382;43.160;24.148;2024-01-30T07:25:49;20.92;;;10.15;;
48596;SDS011;34382;43.160;24.148;2024-01-30T07:27:22;20.45;;;10.98;;
48596;SDS011;34382;43.160;24.148;2024-01-30T07:28:54;18.27;;;9.75;;
48596;SDS011;34382;43.160;24.148;2024-01-30T07:30:27;19.77;;;10.45;;
48596;SDS011;34382;43.160;24.148;2024-01-30T07:31:59;22.05;;;11.68;;
48596;SDS011;34382;43.160;24.148;2024-01-30T07:33:31;21.13;;;11.48;;
48596;SDS011;34382;43.160;24.148;2024-01-30T07:35:04;24.80;;;12.27;;
48596;SDS011;34382;43.160;24.148;2024-01-30T07:36:39;20.73;;;12.32;;
48596;SDS011;34382;43.160;24.148;2024-01-30T07:38:12;19.60;;;11.15;;
48596;SDS011;34382;43.160;24.148;2024-01-30T07:39:44;21.98;;;11.70;;
48596;SDS011;34382;43.160;24.148;2024-01-30T07:41:16;24.38;;;11.05;;
48596;SDS011;34382;43.160;24.148;2024-01-30T07:42:48;22.00;;;10.73;;
48596;SDS011;34382;43.160;24.148;2024-01-30T07:44:21;24.40;;;11.63;;
48596;SDS011;34382;43.160;24.148;2024-01-30T07:45:54;25.40;;;12.27;;
48596;SDS011;34382;43.160;24.148;2024-01-30T07:47:26;23.10;;;12.13;;
48596;SDS011;34382;43.160;24.148;2024-01-30T07:48:58;21.95;;;11.93;;
48596;SDS011;34382;43.160;24.148;2024-01-30T07:50:31;22.45;;;12.45;;
48596;SDS011;34382;43.160;24.148;2024-01-30T07:52:04;25.90;;;12.20;;
48596;SDS011;34382;43.160;24.148;2024-01-30T07:53:37;22.83;;;11.75;;
48596;SDS011;34382;43.160;24.148;2024-01-30T07:55:09;22.35;;;11.77;;
48596;SDS011;34382;43.160;24.148;2024-01-30T07:56:41;20.83;;;11.75;;
48596;SDS011;34382;43.160;24.148;2024-01-30T07:58:14;26.20;;;13.57;;
48596;SDS011;34382;43.160;24.148;2024-01-30T07:59:46;24.75;;;14.00;;
48596;SDS011;34382;43.160;24.148;2024-01-30T08:01:18;22.30;;;11.93;;
48596;SDS011;34382;43.160;24.148;2024-01-30T08:02:51;20.48;;;11.55;;
48596;SDS011;34382;43.160;24.148;2024-01-30T08:04:26;20.83;;;11.15;;
48596;SDS011;34382;43.160;24.148;2024-01-30T08:05:58;21.27;;;10.75;;
48596;SDS011;34382;43.160;24.148;2024-01-30T08:07:30;18.90;;;10.85;;
48596;SDS011;34382;43.160;24.148;2024-01-30T08:09:03;19.15;;;10.18;;
48596;SDS011;34382;43.160;24.148;2024-01-30T08:10:36;19.13;;;10.07;;
48596;SDS011;34382;43.160;24.148;2024-01-30T08:12:08;17.95;;;9.45;;
48596;SDS011;34382;43.160;24.148;2024-01-30T08:13:41;19.73;;;10.45;;
48596;SDS011;34382;43.160;24.148;2024-01-30T08:15:13;22.33;;;10.73;;
48596;SDS011;34382;43.160;24.148;2024-01-30T08:16:45;21.90;;;9.55;;
48596;SDS011;34382;43.160;24.148;2024-01-30T08:18:18;20.02;;;9.90;;
48596;SDS011;34382;43.160;24.148;2024-01-30T08:19:50;18.42;;;9.00;;
48596;SDS011;34382;43.160;24.148;2024-01-30T08:21:23;19.02;;;9.77;;
48596;SDS011;34382;43.160;24.148;2024-01-30T08:22:56;20.48;;;9.82;;
48596;SDS011;34382;43.160;24.148;2024-01-30T08:24:28;19.90;;;9.90;;
48596;SDS011;34382;43.160;24.148;2024-01-30T08:26:00;19.58;;;9.68;;
48596;SDS011;34382;43.160;24.148;2024-01-30T08:27:33;18.52;;;9.32;;
48596;SDS011;34382;43.160;24.148;2024-01-30T08:29:07;18.92;;;9.50;;
48596;SDS011;34382;43.160;24.148;2024-01-30T08:30:39;20.35;;;9.60;;
48596;SDS011;34382;43.160;24.148;2024-01-30T09:04:09;18.83;;;10.10;;
48596;SDS011;34382;43.160;24.148;2024-01-30T09:05:42;16.77;;;9.07;;
48596;SDS011;34382;43.160;24.148;2024-01-30T09:07:14;16.15;;;8.43;;
48596;SDS011;34382;43.160;24.148;2024-01-30T09:08:47;19.33;;;9.97;;
48596;SDS011;34382;43.160;24.148;2024-01-30T09:10:19;19.58;;;9.20;;
48596;SDS011;34382;43.160;24.148;2024-01-30T09:11:52;15.85;;;8.75;;
48596;SDS011;34382;43.160;24.148;2024-01-30T09:13:24;19.88;;;10.23;;
48596;SDS011;34382;43.160;24.148;2024-01-30T09:14:59;18.17;;;9.38;;
48596;SDS011;34382;43.160;24.148;2024-01-30T09:16:34;18.38;;;9.18;;
48596;SDS011;34382;43.160;24.148;2024-01-30T09:18:06;21.52;;;9.82;;
48596;SDS011;34382;43.160;24.148;2024-01-30T09:19:39;19.63;;;9.10;;
48596;SDS011;34382;43.160;24.148;2024-01-30T09:21:12;18.77;;;8.57;;
48596;SDS011;34382;43.160;24.148;2024-01-30T09:22:44;19.30;;;9.02;;
48596;SDS011;34382;43.160;24.148;2024-01-30T09:24:16;19.45;;;10.43;;
48596;SDS011;34382;43.160;24.148;2024-01-30T09:25:49;18.38;;;9.65;;
48596;SDS011;34382;43.160;24.148;2024-01-30T09:27:21;21.30;;;11.00;;
48596;SDS011;34382;43.160;24.148;2024-01-30T09:28:53;20.10;;;10.00;;
48596;SDS011;34382;43.160;24.148;2024-01-30T09:30:26;21.88;;;11.82;;
48596;SDS011;34382;43.160;24.148;2024-01-30T09:31:58;20.33;;;11.32;;
48596;SDS011;34382;43.160;24.148;2024-01-30T09:33:30;23.38;;;10.15;;
48596;SDS011;34382;43.160;24.148;2024-01-30T09:35:03;18.48;;;10.27;;
48596;SDS011;34382;43.160;24.148;2024-01-30T09:36:35;21.20;;;10.27;;
48596;SDS011;34382;43.160;24.148;2024-01-30T09:38:08;19.02;;;10.05;;
48596;SDS011;34382;43.160;24.148;2024-01-30T09:39:40;18.10;;;9.10;;
48596;SDS011;34382;43.160;24.148;2024-01-30T09:41:13;18.35;;;9.68;;
48596;SDS011;34382;43.160;24.148;2024-01-30T09:42:46;20.92;;;10.02;;
48596;SDS011;34382;43.160;24.148;2024-01-30T09:44:22;21.40;;;11.10;;
48596;SDS011;34382;43.160;24.148;2024-01-30T09:47:30;19.85;;;9.48;;
48596;SDS011;34382;43.160;24.148;2024-01-30T09:49:14;22.55;;;11.25;;
48596;SDS011;34382;43.160;24.148;2024-01-30T09:50:51;19.17;;;10.43;;
48596;SDS011;34382;43.160;24.148;2024-01-30T09:52:24;16.88;;;8.77;;
48596;SDS011;34382;43.160;24.148;2024-01-30T09:53:57;21.17;;;9.52;;
48596;SDS011;34382;43.160;24.148;2024-01-30T09:55:29;18.77;;;9.57;;
48596;SDS011;34382;43.160;24.148;2024-01-30T09:57:02;18.37;;;9.00;;
48596;SDS011;34382;43.160;24.148;2024-01-30T09:58:34;19.17;;;9.63;;
48596;SDS011;34382;43.160;24.148;2024-01-30T10:00:06;20.17;;;9.85;;
48596;SDS011;34382;43.160;24.148;2024-01-30T10:01:40;20.35;;;10.27;;
48596;SDS011;34382;43.160;24.148;2024-01-30T10:03:14;19.45;;;10.23;;
48596;SDS011;34382;43.160;24.148;2024-01-30T10:04:47;19.42;;;9.52;;
48596;SDS011;34382;43.160;24.148;2024-01-30T11:43:15;9.25;;;3.60;;
48596;SDS011;34382;43.160;24.148;2024-01-30T11:44:49;7.97;;;3.45;;
48596;SDS011;34382;43.160;24.148;2024-01-30T11:46:24;7.07;;;3.53;;
48596;SDS011;34382;43.160;24.148;2024-01-30T11:47:57;9.82;;;4.00;;
48596;SDS011;34382;43.160;24.148;2024-01-30T11:49:32;8.48;;;3.72;;
48596;SDS011;34382;43.160;24.148;2024-01-30T11:51:04;10.00;;;4.13;;
48596;SDS011;34382;43.160;24.148;2024-01-30T11:52:37;11.37;;;3.90;;
48596;SDS011;34382;43.160;24.148;2024-01-30T11:54:10;8.50;;;3.93;;
48596;SDS011;34382;43.160;24.148;2024-01-30T11:55:48;9.23;;;4.03;;
48596;SDS011;34382;43.160;24.148;2024-01-30T11:57:21;9.35;;;3.60;;
48596;SDS011;34382;43.160;24.148;2024-01-30T11:58:54;9.38;;;4.20;;
48596;SDS011;34382;43.160;24.148;2024-01-30T12:00:27;9.45;;;4.32;;
48596;SDS011;34382;43.160;24.148;2024-01-30T12:01:59;9.02;;;3.90;;
48596;SDS011;34382;43.160;24.148;2024-01-30T12:03:32;8.55;;;4.00;;
48596;SDS011;34382;43.160;24.148;2024-01-30T12:05:05;9.05;;;4.15;;
48596;SDS011;34382;43.160;24.148;2024-01-30T12:06:38;7.95;;;3.40;;
48596;SDS011;34382;43.160;24.148;2024-01-30T12:08:16;11.17;;;4.07;;
48596;SDS011;34382;43.160;24.148;2024-01-30T12:09:52;8.85;;;4.15;;
48596;SDS011;34382;43.160;24.148;2024-01-30T12:11:26;7.55;;;3.20;;
48596;SDS011;34382;43.160;24.148;2024-01-30T12:13:00;8.30;;;3.67;;
48596;SDS011;34382;43.160;24.148;2024-01-30T12:16:06;8.32;;;3.45;;
48596;SDS011;34382;43.160;24.148;2024-01-30T12:17:39;7.30;;;3.20;;
48596;SDS011;34382;43.160;24.148;2024-01-30T12:19:20;9.80;;;4.00;;